sensor_id;sensor_type;location;lat;lon;timestamp;temperature;humidity
26254;DHT22;53339;51.378;0.094;2023-08-20T00:01:57;16.70;82.50
26254;DHT22;53339;51.378;0.094;2023-08-20T00:04:27;16.70;82.50
26254;DHT22;53339;51.378;0.094;2023-08-20T00:06:58;16.70;82.70
26254;DHT22;53339;51.378;0.094;2023-08-20T00:09:26;16.70;82.60
26254;DHT22;53339;51.378;0.094;2023-08-20T00:11:54;16.70;82.60
26254;DHT22;53339;51.378;0.094;2023-08-20T00:15:01;16.70;82.60
26254;DHT22;53339;51.378;0.094;2023-08-20T00:17:36;16.70;82.60
26254;DHT22;53339;51.378;0.094;2023-08-20T00:20:06;16.70;82.60
26254;DHT22;53339;51.378;0.094;2023-08-20T00:22:41;16.70;82.60
26254;DHT22;53339;51.378;0.094;2023-08-20T00:25:18;16.70;82.50
26254;DHT22;53339;51.378;0.094;2023-08-20T00:27:46;16.70;82.50
26254;DHT22;53339;51.378;0.094;2023-08-20T00:30:19;16.70;82.50
26254;DHT22;53339;51.378;0.094;2023-08-20T00:32:48;16.70;82.40
26254;DHT22;53339;51.378;0.094;2023-08-20T00:35:19;16.70;82.40
26254;DHT22;53339;51.378;0.094;2023-08-20T00:37:50;16.60;82.40
26254;DHT22;53339;51.378;0.094;2023-08-20T00:40:23;16.60;82.40
26254;DHT22;53339;51.378;0.094;2023-08-20T00:42:53;16.60;82.40
26254;DHT22;53339;51.378;0.094;2023-08-20T00:45:26;16.60;82.50
26254;DHT22;53339;51.378;0.094;2023-08-20T00:48:05;16.60;82.50
26254;DHT22;53339;51.378;0.094;2023-08-20T00:50:33;16.50;82.50
26254;DHT22;53339;51.378;0.094;2023-08-20T00:53:03;16.50;82.60
26254;DHT22;53339;51.378;0.094;2023-08-20T00:55:31;16.50;82.60
26254;DHT22;53339;51.378;0.094;2023-08-20T00:58:01;16.50;82.60
26254;DHT22;53339;51.378;0.094;2023-08-20T01:00:37;16.50;82.60
26254;DHT22;53339;51.378;0.094;2023-08-20T01:03:05;16.50;82.60
26254;DHT22;53339;51.378;0.094;2023-08-20T01:05:40;16.40;82.60
26254;DHT22;53339;51.378;0.094;2023-08-20T01:08:32;16.50;82.60
26254;DHT22;53339;51.378;0.094;2023-08-20T01:11:09;16.40;82.60
26254;DHT22;53339;51.378;0.094;2023-08-20T01:13:41;16.40;82.50
26254;DHT22;53339;51.378;0.094;2023-08-20T01:16:08;16.40;82.50
26254;DHT22;53339;51.378;0.094;2023-08-20T01:18:38;16.40;82.50
26254;DHT22;53339;51.378;0.094;2023-08-20T01:21:23;16.50;82.40
26254;DHT22;53339;51.378;0.094;2023-08-20T01:24:10;16.60;82.40
26254;DHT22;53339;51.378;0.094;2023-08-20T01:29:34;16.60;82.10
26254;DHT22;53339;51.378;0.094;2023-08-20T01:32:04;16.60;82.10
26254;DHT22;53339;51.378;0.094;2023-08-20T01:34:34;16.60;82.00
26254;DHT22;53339;51.378;0.094;2023-08-20T01:37:07;16.50;82.00
26254;DHT22;53339;51.378;0.094;2023-08-20T01:39:36;16.50;82.00
26254;DHT22;53339;51.378;0.094;2023-08-20T01:42:06;16.40;82.00
26254;DHT22;53339;51.378;0.094;2023-08-20T01:44:34;16.40;82.10
26254;DHT22;53339;51.378;0.094;2023-08-20T01:47:04;16.30;82.20
26254;DHT22;53339;51.378;0.094;2023-08-20T01:49:35;16.30;82.20
26254;DHT22;53339;51.378;0.094;2023-08-20T01:52:05;16.30;82.40
26254;DHT22;53339;51.378;0.094;2023-08-20T01:54:33;16.20;82.60
26254;DHT22;53339;51.378;0.094;2023-08-20T01:57:02;16.20;82.70
26254;DHT22;53339;51.378;0.094;2023-08-20T01:59:30;16.30;82.80
26254;DHT22;53339;51.378;0.094;2023-08-20T02:01:58;16.30;82.80
26254;DHT22;53339;51.378;0.094;2023-08-20T02:04:29;16.30;82.90
26254;DHT22;53339;51.378;0.094;2023-08-20T02:07:01;16.30;83.00
26254;DHT22;53339;51.378;0.094;2023-08-20T02:09:34;16.30;83.10
26254;DHT22;53339;51.378;0.094;2023-08-20T02:12:05;16.20;83.20
26254;DHT22;53339;51.378;0.094;2023-08-20T02:14:39;16.20;83.40
26254;DHT22;53339;51.378;0.094;2023-08-20T02:17:07;16.20;83.40
26254;DHT22;53339;51.378;0.094;2023-08-20T02:19:36;16.20;83.50
26254;DHT22;53339;51.378;0.094;2023-08-20T02:22:08;16.20;83.60
26254;DHT22;53339;51.378;0.094;2023-08-20T02:24:42;16.20;83.70
26254;DHT22;53339;51.378;0.094;2023-08-20T02:27:10;16.20;83.70
26254;DHT22;53339;51.378;0.094;2023-08-20T02:29:38;16.20;83.70
26254;DHT22;53339;51.378;0.094;2023-08-20T02:32:07;16.20;83.80
26254;DHT22;53339;51.378;0.094;2023-08-20T02:34:38;16.20;83.90
26254;DHT22;53339;51.378;0.094;2023-08-20T02:37:07;16.20;84.00
26254;DHT22;53339;51.378;0.094;2023-08-20T02:39:40;16.20;84.00
26254;DHT22;53339;51.378;0.094;2023-08-20T02:42:09;16.10;84.10
26254;DHT22;53339;51.378;0.094;2023-08-20T02:44:37;16.10;84.10
26254;DHT22;53339;51.378;0.094;2023-08-20T02:47:06;16.10;84.10
26254;DHT22;53339;51.378;0.094;2023-08-20T02:49:35;16.10;84.10
26254;DHT22;53339;51.378;0.094;2023-08-20T02:52:05;16.10;84.20
26254;DHT22;53339;51.378;0.094;2023-08-20T02:54:33;16.10;84.20
26254;DHT22;53339;51.378;0.094;2023-08-20T02:57:02;16.10;84.30
26254;DHT22;53339;51.378;0.094;2023-08-20T02:59:30;16.00;84.20
26254;DHT22;53339;51.378;0.094;2023-08-20T03:02:04;16.00;84.20
26254;DHT22;53339;51.378;0.094;2023-08-20T03:04:36;16.00;84.20
26254;DHT22;53339;51.378;0.094;2023-08-20T03:07:04;16.00;84.30
26254;DHT22;53339;51.378;0.094;2023-08-20T03:09:35;16.00;84.30
26254;DHT22;53339;51.378;0.094;2023-08-20T03:12:03;16.00;84.30
26254;DHT22;53339;51.378;0.094;2023-08-20T03:14:31;16.00;84.30
26254;DHT22;53339;51.378;0.094;2023-08-20T03:17:00;16.00;84.30
26254;DHT22;53339;51.378;0.094;2023-08-20T03:19:33;15.90;84.30
26254;DHT22;53339;51.378;0.094;2023-08-20T03:22:05;15.90;84.30
26254;DHT22;53339;51.378;0.094;2023-08-20T03:24:33;15.90;84.40
26254;DHT22;53339;51.378;0.094;2023-08-20T03:27:04;15.90;84.30
26254;DHT22;53339;51.378;0.094;2023-08-20T03:29:33;15.80;84.40
26254;DHT22;53339;51.378;0.094;2023-08-20T03:32:02;15.80;84.40
26254;DHT22;53339;51.378;0.094;2023-08-20T03:34:30;15.80;84.40
26254;DHT22;53339;51.378;0.094;2023-08-20T03:36:58;15.80;84.50
26254;DHT22;53339;51.378;0.094;2023-08-20T03:39:26;15.80;84.50
26254;DHT22;53339;51.378;0.094;2023-08-20T03:41:54;15.90;84.50
26254;DHT22;53339;51.378;0.094;2023-08-20T03:44:27;15.80;84.50
26254;DHT22;53339;51.378;0.094;2023-08-20T03:46:57;15.80;84.50
26254;DHT22;53339;51.378;0.094;2023-08-20T03:49:26;15.80;84.50
26254;DHT22;53339;51.378;0.094;2023-08-20T03:51:55;15.80;84.50
26254;DHT22;53339;51.378;0.094;2023-08-20T03:54:23;15.90;84.50
26254;DHT22;53339;51.378;0.094;2023-08-20T03:56:51;15.90;84.50
26254;DHT22;53339;51.378;0.094;2023-08-20T03:59:28;15.90;84.50
26254;DHT22;53339;51.378;0.094;2023-08-20T04:01:56;15.90;84.60
26254;DHT22;53339;51.378;0.094;2023-08-20T04:04:25;15.90;84.60
26254;DHT22;53339;51.378;0.094;2023-08-20T04:06:57;15.90;84.60
26254;DHT22;53339;51.378;0.094;2023-08-20T04:09:29;15.90;84.50
26254;DHT22;53339;51.378;0.094;2023-08-20T04:11:59;15.90;84.50
26254;DHT22;53339;51.378;0.094;2023-08-20T04:14:29;15.90;84.50
26254;DHT22;53339;51.378;0.094;2023-08-20T04:17:01;15.90;84.60
26254;DHT22;53339;51.378;0.094;2023-08-20T04:19:32;15.90;84.60
26254;DHT22;53339;51.378;0.094;2023-08-20T04:22:00;15.90;84.60
26254;DHT22;53339;51.378;0.094;2023-08-20T04:24:29;16.00;84.60
26254;DHT22;53339;51.378;0.094;2023-08-20T04:26:57;16.00;84.50
26254;DHT22;53339;51.378;0.094;2023-08-20T04:29:27;15.90;84.50
26254;DHT22;53339;51.378;0.094;2023-08-20T04:31:55;15.90;84.40
26254;DHT22;53339;51.378;0.094;2023-08-20T04:34:24;15.90;84.40
26254;DHT22;53339;51.378;0.094;2023-08-20T04:36:53;15.90;84.40
26254;DHT22;53339;51.378;0.094;2023-08-20T04:39:22;15.80;84.40
26254;DHT22;53339;51.378;0.094;2023-08-20T04:41:52;15.70;84.50
26254;DHT22;53339;51.378;0.094;2023-08-20T04:44:22;15.70;84.50
26254;DHT22;53339;51.378;0.094;2023-08-20T04:46:54;15.70;84.60
26254;DHT22;53339;51.378;0.094;2023-08-20T04:49:23;15.80;84.60
26254;DHT22;53339;51.378;0.094;2023-08-20T04:51:53;15.80;84.60
26254;DHT22;53339;51.378;0.094;2023-08-20T04:54:21;15.70;84.50
26254;DHT22;53339;51.378;0.094;2023-08-20T04:56:49;15.70;84.50
26254;DHT22;53339;51.378;0.094;2023-08-20T04:59:19;15.70;84.60
26254;DHT22;53339;51.378;0.094;2023-08-20T05:02:09;15.70;84.60
26254;DHT22;53339;51.378;0.094;2023-08-20T05:04:53;15.70;84.60
26254;DHT22;53339;51.378;0.094;2023-08-20T05:07:24;15.70;84.60
26254;DHT22;53339;51.378;0.094;2023-08-20T05:09:52;15.70;84.70
26254;DHT22;53339;51.378;0.094;2023-08-20T05:12:20;15.70;84.80
26254;DHT22;53339;51.378;0.094;2023-08-20T05:14:52;15.70;84.80
26254;DHT22;53339;51.378;0.094;2023-08-20T05:17:20;15.80;84.80
26254;DHT22;53339;51.378;0.094;2023-08-20T05:19:50;15.80;84.80
26254;DHT22;53339;51.378;0.094;2023-08-20T05:22:21;15.90;84.80
26254;DHT22;53339;51.378;0.094;2023-08-20T05:24:51;15.90;84.80
26254;DHT22;53339;51.378;0.094;2023-08-20T05:27:36;15.90;84.80
26254;DHT22;53339;51.378;0.094;2023-08-20T05:30:06;16.00;84.80
26254;DHT22;53339;51.378;0.094;2023-08-20T05:32:36;16.00;84.80
26254;DHT22;53339;51.378;0.094;2023-08-20T05:35:09;16.10;84.70
26254;DHT22;53339;51.378;0.094;2023-08-20T05:37:38;16.10;84.70
26254;DHT22;53339;51.378;0.094;2023-08-20T05:40:07;16.20;84.70
26254;DHT22;53339;51.378;0.094;2023-08-20T05:42:37;16.20;84.70
26254;DHT22;53339;51.378;0.094;2023-08-20T05:45:07;16.20;84.80
26254;DHT22;53339;51.378;0.094;2023-08-20T05:47:35;16.20;84.80
26254;DHT22;53339;51.378;0.094;2023-08-20T05:50:07;16.30;84.80
26254;DHT22;53339;51.378;0.094;2023-08-20T05:52:35;16.40;84.70
26254;DHT22;53339;51.378;0.094;2023-08-20T05:55:03;16.40;84.80
26254;DHT22;53339;51.378;0.094;2023-08-20T05:57:33;16.40;84.80
26254;DHT22;53339;51.378;0.094;2023-08-20T06:00:07;16.50;84.90
26254;DHT22;53339;51.378;0.094;2023-08-20T06:02:42;16.50;85.00
26254;DHT22;53339;51.378;0.094;2023-08-20T06:05:10;16.60;85.10
26254;DHT22;53339;51.378;0.094;2023-08-20T06:07:39;16.60;85.10
26254;DHT22;53339;51.378;0.094;2023-08-20T06:10:11;16.70;85.10
26254;DHT22;53339;51.378;0.094;2023-08-20T06:12:39;16.70;85.20
26254;DHT22;53339;51.378;0.094;2023-08-20T06:15:08;16.80;85.20
26254;DHT22;53339;51.378;0.094;2023-08-20T06:17:36;16.80;85.20
26254;DHT22;53339;51.378;0.094;2023-08-20T06:20:05;16.90;85.20
26254;DHT22;53339;51.378;0.094;2023-08-20T06:22:35;17.00;85.20
26254;DHT22;53339;51.378;0.094;2023-08-20T06:25:04;17.00;85.10
26254;DHT22;53339;51.378;0.094;2023-08-20T06:27:33;17.10;85.20
26254;DHT22;53339;51.378;0.094;2023-08-20T06:30:06;17.20;85.20
26254;DHT22;53339;51.378;0.094;2023-08-20T06:32:37;17.20;85.20
26254;DHT22;53339;51.378;0.094;2023-08-20T06:35:08;17.20;85.20
26254;DHT22;53339;51.378;0.094;2023-08-20T06:37:39;17.30;85.10
26254;DHT22;53339;51.378;0.094;2023-08-20T06:40:12;17.30;85.00
26254;DHT22;53339;51.378;0.094;2023-08-20T06:42:41;17.40;85.00
26254;DHT22;53339;51.378;0.094;2023-08-20T06:45:11;17.50;84.90
26254;DHT22;53339;51.378;0.094;2023-08-20T06:47:39;17.50;84.80
26254;DHT22;53339;51.378;0.094;2023-08-20T06:50:10;17.60;84.70
26254;DHT22;53339;51.378;0.094;2023-08-20T06:52:43;17.70;84.60
26254;DHT22;53339;51.378;0.094;2023-08-20T06:55:10;17.70;84.40
26254;DHT22;53339;51.378;0.094;2023-08-20T06:57:38;17.80;84.30
26254;DHT22;53339;51.378;0.094;2023-08-20T07:00:06;17.90;84.20
26254;DHT22;53339;51.378;0.094;2023-08-20T07:02:34;17.90;84.00
26254;DHT22;53339;51.378;0.094;2023-08-20T07:05:03;18.00;83.70
26254;DHT22;53339;51.378;0.094;2023-08-20T07:07:32;18.10;83.70
26254;DHT22;53339;51.378;0.094;2023-08-20T07:10:01;18.20;83.50
26254;DHT22;53339;51.378;0.094;2023-08-20T07:12:34;18.20;83.30
26254;DHT22;53339;51.378;0.094;2023-08-20T07:15:08;18.30;83.00
26254;DHT22;53339;51.378;0.094;2023-08-20T07:17:39;18.40;83.00
26254;DHT22;53339;51.378;0.094;2023-08-20T07:20:07;18.40;82.60
26254;DHT22;53339;51.378;0.094;2023-08-20T07:22:39;18.50;82.50
26254;DHT22;53339;51.378;0.094;2023-08-20T07:25:07;18.60;82.50
26254;DHT22;53339;51.378;0.094;2023-08-20T07:27:42;18.70;82.40
26254;DHT22;53339;51.378;0.094;2023-08-20T07:30:11;18.70;82.20
26254;DHT22;53339;51.378;0.094;2023-08-20T07:32:39;18.80;82.10
26254;DHT22;53339;51.378;0.094;2023-08-20T07:35:11;18.90;81.80
26254;DHT22;53339;51.378;0.094;2023-08-20T07:37:38;19.00;81.60
26254;DHT22;53339;51.378;0.094;2023-08-20T07:40:15;19.00;81.80
26254;DHT22;53339;51.378;0.094;2023-08-20T07:42:44;19.10;81.50
26254;DHT22;53339;51.378;0.094;2023-08-20T07:45:12;19.20;80.50
26254;DHT22;53339;51.378;0.094;2023-08-20T07:47:40;19.20;80.40
26254;DHT22;53339;51.378;0.094;2023-08-20T07:50:08;19.20;79.80
26254;DHT22;53339;51.378;0.094;2023-08-20T07:52:36;19.30;79.50
26254;DHT22;53339;51.378;0.094;2023-08-20T07:55:05;19.30;79.70
26254;DHT22;53339;51.378;0.094;2023-08-20T07:57:36;19.40;80.10
26254;DHT22;53339;51.378;0.094;2023-08-20T08:00:07;19.40;80.00
26254;DHT22;53339;51.378;0.094;2023-08-20T08:02:42;19.60;79.60
26254;DHT22;53339;51.378;0.094;2023-08-20T08:05:13;19.60;79.50
26254;DHT22;53339;51.378;0.094;2023-08-20T08:07:42;19.60;79.10
26254;DHT22;53339;51.378;0.094;2023-08-20T08:10:10;19.60;79.10
26254;DHT22;53339;51.378;0.094;2023-08-20T08:12:41;19.70;79.20
26254;DHT22;53339;51.378;0.094;2023-08-20T08:15:09;19.70;78.80
26254;DHT22;53339;51.378;0.094;2023-08-20T08:17:37;19.70;78.00
26254;DHT22;53339;51.378;0.094;2023-08-20T08:20:06;19.70;77.80
26254;DHT22;53339;51.378;0.094;2023-08-20T08:22:35;19.70;77.80
26254;DHT22;53339;51.378;0.094;2023-08-20T08:25:03;19.70;78.10
26254;DHT22;53339;51.378;0.094;2023-08-20T08:27:34;19.70;78.30
26254;DHT22;53339;51.378;0.094;2023-08-20T08:30:10;19.80;78.50
26254;DHT22;53339;51.378;0.094;2023-08-20T08:32:48;19.90;78.40
26254;DHT22;53339;51.378;0.094;2023-08-20T08:35:18;20.10;78.10
26254;DHT22;53339;51.378;0.094;2023-08-20T08:37:46;20.30;77.70
26254;DHT22;53339;51.378;0.094;2023-08-20T08:40:14;20.50;76.80
26254;DHT22;53339;51.378;0.094;2023-08-20T08:42:49;20.60;76.40
26254;DHT22;53339;51.378;0.094;2023-08-20T08:45:23;20.70;75.80
26254;DHT22;53339;51.378;0.094;2023-08-20T08:47:51;20.70;75.80
26254;DHT22;53339;51.378;0.094;2023-08-20T08:50:20;20.70;74.60
26254;DHT22;53339;51.378;0.094;2023-08-20T08:52:51;20.70;73.80
26254;DHT22;53339;51.378;0.094;2023-08-20T08:55:23;20.80;74.00
26254;DHT22;53339;51.378;0.094;2023-08-20T08:57:51;20.80;73.70
26254;DHT22;53339;51.378;0.094;2023-08-20T09:00:19;20.90;74.10
26254;DHT22;53339;51.378;0.094;2023-08-20T09:02:54;21.00;74.30
26254;DHT22;53339;51.378;0.094;2023-08-20T09:05:26;21.10;73.60
26254;DHT22;53339;51.378;0.094;2023-08-20T09:07:57;21.10;73.40
26254;DHT22;53339;51.378;0.094;2023-08-20T09:10:26;21.10;74.00
26254;DHT22;53339;51.378;0.094;2023-08-20T09:12:57;21.20;74.20
26254;DHT22;53339;51.378;0.094;2023-08-20T09:15:34;21.20;74.10
26254;DHT22;53339;51.378;0.094;2023-08-20T09:18:09;21.30;73.60
26254;DHT22;53339;51.378;0.094;2023-08-20T09:20:42;21.30;72.60
26254;DHT22;53339;51.378;0.094;2023-08-20T09:23:13;21.30;72.40
26254;DHT22;53339;51.378;0.094;2023-08-20T09:25:43;21.30;72.50
26254;DHT22;53339;51.378;0.094;2023-08-20T09:28:18;21.30;71.00
26254;DHT22;53339;51.378;0.094;2023-08-20T09:30:59;21.30;71.60
26254;DHT22;53339;51.378;0.094;2023-08-20T09:33:37;21.30;71.50
26254;DHT22;53339;51.378;0.094;2023-08-20T09:36:35;21.40;71.90
26254;DHT22;53339;51.378;0.094;2023-08-20T09:39:10;21.50;71.90
26254;DHT22;53339;51.378;0.094;2023-08-20T09:41:39;21.60;70.70
26254;DHT22;53339;51.378;0.094;2023-08-20T09:44:08;21.60;71.20
26254;DHT22;53339;51.378;0.094;2023-08-20T09:46:37;21.70;71.30
26254;DHT22;53339;51.378;0.094;2023-08-20T09:49:07;21.70;71.00
26254;DHT22;53339;51.378;0.094;2023-08-20T09:51:53;21.80;71.50
26254;DHT22;53339;51.378;0.094;2023-08-20T09:57:41;22.20;70.50
26254;DHT22;53339;51.378;0.094;2023-08-20T10:00:23;22.30;69.80
26254;DHT22;53339;51.378;0.094;2023-08-20T10:02:55;22.40;68.90
26254;DHT22;53339;51.378;0.094;2023-08-20T10:05:32;22.30;67.00
26254;DHT22;53339;51.378;0.094;2023-08-20T10:08:01;22.20;67.90
26254;DHT22;53339;51.378;0.094;2023-08-20T10:10:37;22.20;66.30
26254;DHT22;53339;51.378;0.094;2023-08-20T10:13:05;22.10;66.80
26254;DHT22;53339;51.378;0.094;2023-08-20T10:15:35;21.90;67.10
26254;DHT22;53339;51.378;0.094;2023-08-20T10:18:09;21.80;66.20
26254;DHT22;53339;51.378;0.094;2023-08-20T10:20:39;21.60;66.80
26254;DHT22;53339;51.378;0.094;2023-08-20T10:23:12;21.50;68.00
26254;DHT22;53339;51.378;0.094;2023-08-20T10:25:41;21.40;68.50
26254;DHT22;53339;51.378;0.094;2023-08-20T10:28:13;21.50;68.20
26254;DHT22;53339;51.378;0.094;2023-08-20T10:31:16;21.70;68.30
26254;DHT22;53339;51.378;0.094;2023-08-20T10:36:19;22.10;66.90
26254;DHT22;53339;51.378;0.094;2023-08-20T10:38:55;22.30;67.20
26254;DHT22;53339;51.378;0.094;2023-08-20T10:41:30;22.50;67.10
26254;DHT22;53339;51.378;0.094;2023-08-20T10:43:59;22.70;66.60
26254;DHT22;53339;51.378;0.094;2023-08-20T10:46:52;23.00;66.20
26254;DHT22;53339;51.378;0.094;2023-08-20T10:49:23;23.30;64.90
26254;DHT22;53339;51.378;0.094;2023-08-20T10:51:55;23.40;64.40
26254;DHT22;53339;51.378;0.094;2023-08-20T10:54:34;23.60;62.70
26254;DHT22;53339;51.378;0.094;2023-08-20T10:57:06;23.60;60.80
26254;DHT22;53339;51.378;0.094;2023-08-20T10:59:40;23.60;61.30
26254;DHT22;53339;51.378;0.094;2023-08-20T11:02:16;23.60;61.50
26254;DHT22;53339;51.378;0.094;2023-08-20T11:04:47;23.40;61.70
26254;DHT22;53339;51.378;0.094;2023-08-20T11:07:20;23.50;62.50
26254;DHT22;53339;51.378;0.094;2023-08-20T11:09:48;23.60;62.70
26254;DHT22;53339;51.378;0.094;2023-08-20T11:12:24;23.70;62.40
26254;DHT22;53339;51.378;0.094;2023-08-20T11:15:00;23.90;62.10
26254;DHT22;53339;51.378;0.094;2023-08-20T11:17:35;24.10;61.30
26254;DHT22;53339;51.378;0.094;2023-08-20T11:20:04;24.10;60.60
26254;DHT22;53339;51.378;0.094;2023-08-20T11:22:39;24.20;60.80
26254;DHT22;53339;51.378;0.094;2023-08-20T11:25:12;24.20;59.70
26254;DHT22;53339;51.378;0.094;2023-08-20T11:27:43;24.20;59.20
26254;DHT22;53339;51.378;0.094;2023-08-20T11:30:12;24.20;59.30
26254;DHT22;53339;51.378;0.094;2023-08-20T11:32:41;24.30;60.30
26254;DHT22;53339;51.378;0.094;2023-08-20T11:35:14;24.50;59.20
26254;DHT22;53339;51.378;0.094;2023-08-20T11:37:43;24.80;58.70
26254;DHT22;53339;51.378;0.094;2023-08-20T11:40:11;25.00;58.80
26254;DHT22;53339;51.378;0.094;2023-08-20T11:42:46;25.10;58.10
26254;DHT22;53339;51.378;0.094;2023-08-20T11:45:14;25.20;58.30
26254;DHT22;53339;51.378;0.094;2023-08-20T11:47:58;25.30;57.30
26254;DHT22;53339;51.378;0.094;2023-08-20T11:50:30;25.00;56.80
26254;DHT22;53339;51.378;0.094;2023-08-20T11:53:05;24.50;56.60
26254;DHT22;53339;51.378;0.094;2023-08-20T11:55:41;24.10;57.40
26254;DHT22;53339;51.378;0.094;2023-08-20T11:58:14;23.70;58.30
26254;DHT22;53339;51.378;0.094;2023-08-20T12:00:43;23.50;59.80
26254;DHT22;53339;51.378;0.094;2023-08-20T12:03:11;23.40;60.60
26254;DHT22;53339;51.378;0.094;2023-08-20T12:05:43;23.40;60.00
26254;DHT22;53339;51.378;0.094;2023-08-20T12:08:16;23.30;60.50
26254;DHT22;53339;51.378;0.094;2023-08-20T12:10:58;23.20;61.30
26254;DHT22;53339;51.378;0.094;2023-08-20T12:13:26;23.10;61.70
26254;DHT22;53339;51.378;0.094;2023-08-20T12:16:07;23.20;61.50
26254;DHT22;53339;51.378;0.094;2023-08-20T12:18:35;23.50;61.40
26254;DHT22;53339;51.378;0.094;2023-08-20T12:21:03;23.70;61.10
26254;DHT22;53339;51.378;0.094;2023-08-20T12:23:30;23.70;59.10
26254;DHT22;53339;51.378;0.094;2023-08-20T12:26:00;23.60;59.90
26254;DHT22;53339;51.378;0.094;2023-08-20T12:28:32;23.60;59.80
26254;DHT22;53339;51.378;0.094;2023-08-20T12:31:03;23.40;60.30
26254;DHT22;53339;51.378;0.094;2023-08-20T12:33:30;23.40;60.40
26254;DHT22;53339;51.378;0.094;2023-08-20T12:36:12;23.50;60.70
26254;DHT22;53339;51.378;0.094;2023-08-20T12:38:39;23.70;60.00
26254;DHT22;53339;51.378;0.094;2023-08-20T12:41:15;24.20;59.50
26254;DHT22;53339;51.378;0.094;2023-08-20T12:43:46;24.90;57.90
26254;DHT22;53339;51.378;0.094;2023-08-20T12:46:17;25.30;55.50
26254;DHT22;53339;51.378;0.094;2023-08-20T12:48:49;25.30;53.90
26254;DHT22;53339;51.378;0.094;2023-08-20T12:51:17;25.10;53.20
26254;DHT22;53339;51.378;0.094;2023-08-20T12:53:45;24.70;54.70
26254;DHT22;53339;51.378;0.094;2023-08-20T12:56:14;24.50;53.90
26254;DHT22;53339;51.378;0.094;2023-08-20T12:58:44;24.20;55.20
26254;DHT22;53339;51.378;0.094;2023-08-20T13:01:12;24.00;55.90
26254;DHT22;53339;51.378;0.094;2023-08-20T13:03:40;23.90;56.00
26254;DHT22;53339;51.378;0.094;2023-08-20T13:06:11;23.70;57.20
26254;DHT22;53339;51.378;0.094;2023-08-20T13:08:43;23.70;57.30
26254;DHT22;53339;51.378;0.094;2023-08-20T13:11:17;23.70;57.30
26254;DHT22;53339;51.378;0.094;2023-08-20T13:13:46;23.90;57.20
26254;DHT22;53339;51.378;0.094;2023-08-20T13:16:15;24.70;55.60
26254;DHT22;53339;51.378;0.094;2023-08-20T13:18:44;25.80;54.10
26254;DHT22;53339;51.378;0.094;2023-08-20T13:21:15;26.80;53.10
26254;DHT22;53339;51.378;0.094;2023-08-20T13:23:46;27.70;52.50
26254;DHT22;53339;51.378;0.094;2023-08-20T13:26:22;27.90;49.80
26254;DHT22;53339;51.378;0.094;2023-08-20T13:28:50;27.40;48.60
26254;DHT22;53339;51.378;0.094;2023-08-20T13:31:17;26.80;50.20
26254;DHT22;53339;51.378;0.094;2023-08-20T13:33:50;26.20;52.20
26254;DHT22;53339;51.378;0.094;2023-08-20T13:36:27;26.10;52.50
26254;DHT22;53339;51.378;0.094;2023-08-20T13:38:55;26.80;52.20
26254;DHT22;53339;51.378;0.094;2023-08-20T13:41:27;27.30;50.00
26254;DHT22;53339;51.378;0.094;2023-08-20T13:43:55;27.30;48.00
26254;DHT22;53339;51.378;0.094;2023-08-20T13:46:23;27.00;48.90
26254;DHT22;53339;51.378;0.094;2023-08-20T13:48:54;26.60;50.20
26254;DHT22;53339;51.378;0.094;2023-08-20T13:51:22;26.10;52.00
26254;DHT22;53339;51.378;0.094;2023-08-20T13:53:50;25.70;53.20
26254;DHT22;53339;51.378;0.094;2023-08-20T13:56:22;26.20;52.90
26254;DHT22;53339;51.378;0.094;2023-08-20T13:58:54;27.30;49.30
26254;DHT22;53339;51.378;0.094;2023-08-20T14:01:27;28.50;46.00
26254;DHT22;53339;51.378;0.094;2023-08-20T14:04:00;29.40;44.30
26254;DHT22;53339;51.378;0.094;2023-08-20T14:06:28;29.70;42.50
26254;DHT22;53339;51.378;0.094;2023-08-20T14:08:56;29.70;42.60
26254;DHT22;53339;51.378;0.094;2023-08-20T14:11:27;30.00;41.60
26254;DHT22;53339;51.378;0.094;2023-08-20T14:13:55;29.40;41.60
26254;DHT22;53339;51.378;0.094;2023-08-20T14:16:23;28.90;43.20
26254;DHT22;53339;51.378;0.094;2023-08-20T14:18:51;29.20;43.50
26254;DHT22;53339;51.378;0.094;2023-08-20T14:21:22;29.80;43.40
26254;DHT22;53339;51.378;0.094;2023-08-20T14:23:50;30.60;43.60
26254;DHT22;53339;51.378;0.094;2023-08-20T14:26:24;31.50;39.00
26254;DHT22;53339;51.378;0.094;2023-08-20T14:28:55;31.90;37.30
26254;DHT22;53339;51.378;0.094;2023-08-20T14:31:23;32.10;38.10
26254;DHT22;53339;51.378;0.094;2023-08-20T14:33:51;32.70;38.80
26254;DHT22;53339;51.378;0.094;2023-08-20T14:36:27;33.30;38.20
26254;DHT22;53339;51.378;0.094;2023-08-20T14:38:59;33.70;38.30
26254;DHT22;53339;51.378;0.094;2023-08-20T14:41:29;33.90;35.20
26254;DHT22;53339;51.378;0.094;2023-08-20T14:44:02;33.30;35.80
26254;DHT22;53339;51.378;0.094;2023-08-20T14:46:31;33.00;35.90
26254;DHT22;53339;51.378;0.094;2023-08-20T14:49:06;32.70;37.20
26254;DHT22;53339;51.378;0.094;2023-08-20T14:51:36;32.90;36.90
26254;DHT22;53339;51.378;0.094;2023-08-20T14:54:05;33.00;35.60
26254;DHT22;53339;51.378;0.094;2023-08-20T14:56:33;33.20;35.20
26254;DHT22;53339;51.378;0.094;2023-08-20T14:59:06;32.60;36.60
26254;DHT22;53339;51.378;0.094;2023-08-20T15:01:34;31.50;36.90
26254;DHT22;53339;51.378;0.094;2023-08-20T15:04:02;30.40;39.30
26254;DHT22;53339;51.378;0.094;2023-08-20T15:06:37;29.50;39.80
26254;DHT22;53339;51.378;0.094;2023-08-20T15:09:08;28.50;41.90
26254;DHT22;53339;51.378;0.094;2023-08-20T15:11:44;27.60;43.90
26254;DHT22;53339;51.378;0.094;2023-08-20T15:14:12;26.90;45.60
26254;DHT22;53339;51.378;0.094;2023-08-20T15:16:40;26.30;47.20
26254;DHT22;53339;51.378;0.094;2023-08-20T15:19:12;26.20;48.10
26254;DHT22;53339;51.378;0.094;2023-08-20T15:21:41;26.40;47.80
26254;DHT22;53339;51.378;0.094;2023-08-20T15:24:09;26.30;48.20
26254;DHT22;53339;51.378;0.094;2023-08-20T15:26:37;26.00;49.20
26254;DHT22;53339;51.378;0.094;2023-08-20T15:29:15;25.90;49.50
26254;DHT22;53339;51.378;0.094;2023-08-20T15:31:50;26.50;49.20
26254;DHT22;53339;51.378;0.094;2023-08-20T15:34:23;27.40;47.70
26254;DHT22;53339;51.378;0.094;2023-08-20T15:36:51;28.50;46.80
26254;DHT22;53339;51.378;0.094;2023-08-20T15:39:19;29.80;44.60
26254;DHT22;53339;51.378;0.094;2023-08-20T15:41:51;30.80;42.80
26254;DHT22;53339;51.378;0.094;2023-08-20T15:44:25;30.90;41.00
26254;DHT22;53339;51.378;0.094;2023-08-20T15:46:57;31.10;41.90
26254;DHT22;53339;51.378;0.094;2023-08-20T15:49:29;31.10;42.30
26254;DHT22;53339;51.378;0.094;2023-08-20T15:51:56;31.50;42.80
26254;DHT22;53339;51.378;0.094;2023-08-20T15:54:25;32.30;42.20
26254;DHT22;53339;51.378;0.094;2023-08-20T15:56:57;33.00;38.20
26254;DHT22;53339;51.378;0.094;2023-08-20T15:59:39;33.30;38.80
26254;DHT22;53339;51.378;0.094;2023-08-20T16:02:11;33.80;38.70
26254;DHT22;53339;51.378;0.094;2023-08-20T16:04:43;34.20;37.40